createdAt,value
2018-01-15T00:00:44.320Z,0.00
2018-01-15T00:01:44.277Z,0.00
2018-01-15T00:02:44.242Z,0.00
2018-01-15T00:03:44.210Z,0.00
2018-01-15T00:04:44.168Z,0.00
2018-01-15T00:05:44.141Z,0.00
2018-01-15T00:06:44.098Z,0.00
2018-01-15T00:07:44.071Z,0.00
2018-01-15T00:08:44.034Z,0.00
2018-01-15T00:09:43.990Z,0.00
2018-01-15T00:10:44.219Z,0.00
2018-01-15T00:11:43.924Z,0.00
2018-01-15T00:12:43.887Z,0.00
2018-01-15T00:13:43.849Z,0.00
2018-01-15T00:14:43.815Z,0.00
2018-01-15T00:15:43.786Z,0.00
2018-01-15T00:16:43.750Z,0.00
2018-01-15T00:17:43.719Z,0.00
2018-01-15T00:18:43.672Z,0.00
2018-01-15T00:19:43.643Z,0.00
2018-01-15T00:20:43.611Z,0.00
2018-01-15T00:21:43.580Z,0.00
2018-01-15T00:22:43.542Z,0.00
2018-01-15T00:23:43.495Z,0.00
2018-01-15T00:24:43.474Z,0.00
2018-01-15T00:25:43.434Z,0.00
2018-01-15T00:26:43.389Z,0.00
2018-01-15T00:27:43.353Z,0.00
2018-01-15T00:28:43.330Z,0.00
2018-01-15T00:29:43.290Z,0.00
2018-01-15T00:30:43.248Z,0.00
2018-01-15T00:31:43.213Z,0.00
2018-01-15T00:32:43.187Z,0.00
2018-01-15T00:33:43.140Z,0.00
2018-01-15T00:34:43.119Z,0.00
2018-01-15T00:35:43.076Z,0.00
2018-01-15T00:36:43.047Z,0.00
2018-01-15T00:37:42.998Z,0.00
2018-01-15T00:38:43.076Z,0.00
2018-01-15T00:39:42.928Z,0.00
2018-01-15T00:40:42.933Z,0.00
2018-01-15T00:41:42.865Z,0.00
2018-01-15T00:42:42.838Z,0.00
2018-01-15T00:43:42.800Z,0.00
2018-01-15T00:44:42.758Z,0.00
2018-01-15T00:45:42.974Z,0.00
2018-01-15T00:46:42.695Z,0.00
2018-01-15T00:47:42.656Z,0.00
2018-01-15T00:48:42.621Z,0.00
2018-01-15T00:49:42.582Z,0.00
2018-01-15T00:50:42.541Z,0.00
2018-01-15T00:51:42.816Z,0.00
2018-01-15T00:52:42.467Z,0.00
2018-01-15T00:53:42.434Z,0.00
2018-01-15T00:54:42.405Z,0.00
2018-01-15T00:55:42.369Z,0.00
2018-01-15T00:56:42.336Z,0.00
2018-01-15T00:57:42.292Z,0.00
2018-01-15T00:58:42.264Z,0.00
2018-01-15T00:59:42.231Z,0.00
2018-01-15T01:00:42.191Z,0.00
2018-01-15T01:01:42.148Z,0.00
2018-01-15T01:02:42.153Z,0.00
2018-01-15T01:03:42.079Z,0.00
2018-01-15T01:04:42.051Z,0.00
2018-01-15T01:05:42.010Z,0.00
2018-01-15T01:06:41.982Z,0.00
2018-01-15T01:07:41.946Z,0.00
2018-01-15T01:08:41.904Z,0.00
2018-01-15T01:09:41.871Z,0.00
2018-01-15T01:10:41.836Z,0.00
2018-01-15T01:11:41.801Z,0.00
2018-01-15T01:12:41.763Z,0.00
2018-01-15T01:13:41.733Z,0.00
2018-01-15T01:14:41.691Z,0.00
2018-01-15T01:15:41.959Z,0.00
2018-01-15T01:16:41.621Z,0.00
2018-01-15T01:17:41.586Z,0.00
2018-01-15T01:18:41.551Z,0.00
2018-01-15T01:19:41.522Z,0.00
2018-01-15T01:20:41.489Z,0.00
2018-01-15T01:21:41.443Z,0.00
2018-01-15T01:22:41.412Z,0.00
2018-01-15T01:23:41.369Z,0.00
2018-01-15T01:24:41.340Z,0.00
2018-01-15T01:25:41.308Z,0.00
2018-01-15T01:26:41.270Z,0.00
2018-01-15T01:27:41.229Z,0.00
2018-01-15T01:28:41.198Z,0.00
2018-01-15T01:29:41.158Z,0.00
2018-01-15T01:30:41.134Z,0.00
2018-01-15T01:31:41.095Z,0.00
2018-01-15T01:32:41.054Z,0.00
2018-01-15T01:33:41.020Z,0.00
2018-01-15T01:34:40.993Z,0.00
2018-01-15T01:35:40.944Z,0.00
2018-01-15T01:36:40.909Z,0.00
2018-01-15T01:37:40.888Z,0.00
2018-01-15T01:38:40.851Z,0.00
2018-01-15T01:39:40.807Z,0.00
2018-01-15T01:40:40.768Z,0.00
2018-01-15T01:41:40.745Z,0.00
2018-01-15T01:42:40.704Z,0.00
2018-01-15T01:43:40.661Z,0.00
2018-01-15T01:44:40.629Z,0.00
2018-01-15T01:45:40.600Z,0.00
2018-01-15T01:46:40.559Z,0.00
2018-01-15T01:47:40.524Z,0.00
2018-01-15T01:48:40.484Z,0.00
2018-01-15T01:49:40.451Z,0.00
2018-01-15T01:50:40.414Z,0.00
2018-01-15T01:51:40.680Z,0.00
2018-01-15T01:52:40.351Z,0.00
2018-01-15T01:53:40.315Z,0.00
2018-01-15T01:54:40.278Z,0.00
2018-01-15T01:55:40.236Z,0.00
2018-01-15T01:56:40.202Z,0.00
2018-01-15T01:57:40.170Z,0.00
2018-01-15T01:58:40.133Z,0.00
2018-01-15T01:59:40.103Z,0.00
2018-01-15T02:00:40.072Z,0.00
2018-01-15T02:01:40.037Z,0.00
2018-01-15T02:02:40.000Z,0.00
2018-01-15T02:03:39.955Z,0.00
2018-01-15T02:04:39.969Z,0.00
2018-01-15T02:05:39.886Z,0.00
2018-01-15T02:06:39.854Z,0.00
2018-01-15T02:07:39.819Z,0.00
2018-01-15T02:08:39.778Z,0.00
2018-01-15T02:09:39.750Z,0.00
2018-01-15T02:10:39.709Z,0.00
2018-01-15T02:11:39.675Z,0.00
2018-01-15T02:12:39.639Z,0.00
2018-01-15T02:13:39.611Z,0.00
2018-01-15T02:14:39.572Z,0.00
2018-01-15T02:15:39.534Z,0.00
2018-01-15T02:16:39.505Z,0.00
2018-01-15T02:17:39.462Z,0.00
2018-01-15T02:18:39.430Z,0.00
2018-01-15T02:19:39.388Z,0.00
2018-01-15T02:20:39.355Z,0.00
2018-01-15T02:21:39.324Z,0.00
2018-01-15T02:22:39.291Z,0.00
2018-01-15T02:23:39.249Z,0.00
2018-01-15T02:24:39.213Z,0.00
2018-01-15T02:25:39.178Z,0.00
2018-01-15T02:26:39.150Z,0.00
2018-01-15T02:27:39.114Z,0.00
2018-01-15T02:28:39.071Z,0.00
2018-01-15T02:29:39.043Z,0.00
2018-01-15T02:30:39.009Z,0.00
2018-01-15T02:31:38.971Z,0.00
2018-01-15T02:32:38.942Z,0.00
2018-01-15T02:33:38.940Z,0.00
2018-01-15T02:34:38.865Z,0.00
2018-01-15T02:35:38.830Z,0.00
2018-01-15T02:36:38.823Z,0.00
2018-01-15T02:37:38.758Z,0.00
2018-01-15T02:38:38.720Z,0.00
2018-01-15T02:39:38.684Z,0.00
2018-01-15T02:40:38.660Z,0.00
2018-01-15T02:41:38.620Z,0.00
2018-01-15T02:42:38.578Z,0.00
2018-01-15T02:43:38.541Z,0.00
2018-01-15T02:44:38.513Z,0.00
2018-01-15T02:45:38.475Z,0.00
2018-01-15T02:46:38.442Z,0.00
2018-01-15T02:47:38.408Z,0.00
2018-01-15T02:48:38.371Z,0.00
2018-01-15T02:49:38.332Z,0.00
2018-01-15T02:50:38.299Z,0.00
2018-01-15T02:51:38.260Z,0.00
2018-01-15T02:52:38.228Z,0.00
2018-01-15T02:53:38.189Z,0.00
2018-01-15T02:54:38.153Z,0.00
2018-01-15T02:55:38.124Z,0.00
2018-01-15T02:56:38.082Z,0.00
2018-01-15T02:57:38.362Z,0.00
2018-01-15T02:58:38.017Z,0.00
2018-01-15T02:59:37.976Z,0.00
2018-01-15T03:00:37.942Z,0.00
2018-01-15T03:01:37.916Z,0.00
2018-01-15T03:02:37.879Z,0.00
2018-01-15T03:03:37.835Z,0.00
2018-01-15T03:04:37.806Z,0.00
2018-01-15T03:05:37.764Z,0.00
2018-01-15T03:06:37.731Z,0.00
2018-01-15T03:07:37.703Z,0.00
2018-01-15T03:08:37.664Z,0.00
2018-01-15T03:09:37.634Z,0.00
2018-01-15T03:10:37.590Z,0.00
2018-01-15T03:11:37.552Z,0.00
2018-01-15T03:12:37.525Z,0.00
2018-01-15T03:13:37.495Z,0.00
2018-01-15T03:14:37.703Z,0.00
2018-01-15T03:15:37.416Z,0.00
2018-01-15T03:16:37.384Z,0.00
2018-01-15T03:17:37.357Z,0.00
2018-01-15T03:18:37.305Z,0.00
2018-01-15T03:19:37.275Z,0.00
2018-01-15T03:20:37.243Z,0.00
2018-01-15T03:21:37.218Z,0.00
2018-01-15T03:22:37.168Z,0.00
2018-01-15T03:23:37.130Z,0.00
2018-01-15T03:24:37.100Z,0.00
2018-01-15T03:25:37.059Z,0.00
2018-01-15T03:26:37.032Z,0.00
2018-01-15T03:27:36.986Z,0.00
2018-01-15T03:28:36.956Z,0.00
2018-01-15T03:29:36.917Z,0.00
2018-01-15T03:30:36.890Z,0.00
2018-01-15T03:31:36.856Z,0.00
2018-01-15T03:32:37.163Z,0.00
2018-01-15T03:33:36.781Z,0.00
2018-01-15T03:34:36.744Z,0.00
2018-01-15T03:35:36.712Z,0.00
2018-01-15T03:36:36.675Z,0.00
2018-01-15T03:37:36.646Z,0.00
2018-01-15T03:38:36.610Z,0.00
2018-01-15T03:39:36.569Z,0.00
2018-01-15T03:40:36.536Z,0.00
2018-01-15T03:41:36.498Z,0.00
2018-01-15T03:42:36.467Z,0.00
2018-01-15T03:43:36.424Z,0.00
2018-01-15T03:44:36.395Z,0.00
2018-01-15T03:45:36.363Z,0.00
2018-01-15T03:46:36.326Z,0.00
2018-01-15T03:47:36.282Z,0.00
2018-01-15T03:48:36.254Z,0.00
2018-01-15T03:49:36.217Z,0.00
2018-01-15T03:50:36.177Z,0.00
2018-01-15T03:51:36.158Z,0.00
2018-01-15T03:52:36.108Z,0.00
2018-01-15T03:53:36.081Z,0.00
2018-01-15T03:54:36.045Z,0.00
2018-01-15T03:55:36.011Z,0.00
2018-01-15T03:56:35.975Z,0.00
2018-01-15T03:57:35.932Z,0.00
2018-01-15T03:58:35.901Z,0.00
2018-01-15T03:59:35.861Z,0.00
2018-01-15T04:00:35.825Z,0.00
2018-01-15T04:01:35.789Z,0.00
2018-01-15T04:02:36.054Z,0.00
2018-01-15T04:03:35.721Z,0.00
2018-01-15T04:04:35.690Z,0.00
2018-01-15T04:05:35.650Z,0.00
2018-01-15T04:06:35.619Z,0.00
2018-01-15T04:07:35.579Z,0.00
2018-01-15T04:08:35.552Z,0.00
2018-01-15T04:09:35.508Z,0.00
2018-01-15T04:10:35.471Z,0.00
2018-01-15T04:11:35.446Z,0.00
2018-01-15T04:12:35.402Z,0.00
2018-01-15T04:13:35.373Z,0.00
2018-01-15T04:14:35.638Z,0.00
2018-01-15T04:15:35.303Z,0.00
2018-01-15T04:16:35.261Z,0.00
2018-01-15T04:17:35.232Z,0.00
2018-01-15T04:18:35.192Z,0.00
2018-01-15T04:19:35.164Z,0.00
2018-01-15T04:20:35.125Z,0.00
2018-01-15T04:21:35.098Z,0.00
2018-01-15T04:22:35.050Z,0.00
2018-01-15T04:23:35.017Z,0.00
2018-01-15T04:24:34.982Z,0.00
2018-01-15T04:25:34.950Z,0.00
2018-01-15T04:26:34.912Z,0.00
2018-01-15T04:27:34.875Z,0.00
2018-01-15T04:28:34.855Z,0.00
2018-01-15T04:29:34.810Z,0.00
2018-01-15T04:30:34.767Z,0.00
2018-01-15T04:31:35.083Z,0.00
2018-01-15T04:32:34.699Z,0.00
2018-01-15T04:33:34.662Z,0.00
2018-01-15T04:34:34.642Z,0.00
2018-01-15T04:35:34.598Z,0.00
2018-01-15T04:36:34.558Z,0.00
2018-01-15T04:37:34.526Z,0.00
2018-01-15T04:38:34.489Z,0.00
2018-01-15T04:39:34.450Z,0.00
2018-01-15T04:40:34.423Z,0.00
2018-01-15T04:41:34.380Z,0.00
2018-01-15T04:42:34.357Z,0.00
2018-01-15T04:43:34.311Z,0.00
2018-01-15T04:44:34.283Z,0.00
2018-01-15T04:45:34.246Z,0.00
2018-01-15T04:46:34.204Z,0.00
2018-01-15T04:47:34.173Z,0.00
2018-01-15T04:48:34.134Z,0.00
2018-01-15T04:49:34.100Z,0.00
2018-01-15T04:50:34.079Z,0.00
2018-01-15T04:51:34.033Z,0.00
2018-01-15T04:52:34.002Z,0.00
2018-01-15T04:53:33.964Z,0.00
2018-01-15T04:54:33.949Z,0.00
2018-01-15T04:55:33.894Z,0.00
2018-01-15T04:56:33.858Z,0.00
2018-01-15T04:57:33.817Z,0.00
2018-01-15T04:58:33.781Z,0.00
2018-01-15T04:59:33.746Z,0.00
2018-01-15T05:00:33.712Z,0.00
2018-01-15T05:01:33.683Z,0.00
2018-01-15T05:02:33.643Z,0.00
2018-01-15T05:03:33.613Z,0.00
2018-01-15T05:04:33.576Z,0.00
2018-01-15T05:05:33.548Z,0.00
2018-01-15T05:06:33.509Z,0.00
2018-01-15T05:07:33.465Z,0.00
2018-01-15T05:08:33.430Z,0.00
2018-01-15T05:09:33.404Z,0.00
2018-01-15T05:10:33.365Z,0.00
2018-01-15T05:11:33.329Z,0.00
2018-01-15T05:12:33.288Z,0.00
2018-01-15T05:13:33.261Z,0.00
2018-01-15T05:14:33.218Z,0.00
2018-01-15T05:15:33.192Z,0.00
2018-01-15T05:16:33.154Z,0.00
2018-01-15T05:17:33.370Z,0.00
2018-01-15T05:18:33.084Z,0.00
2018-01-15T05:19:33.055Z,0.00
2018-01-15T05:20:33.007Z,0.00
2018-01-15T05:21:32.986Z,0.00
2018-01-15T05:22:32.942Z,0.00
2018-01-15T05:23:32.904Z,0.00
2018-01-15T05:24:32.868Z,0.00
2018-01-15T05:25:32.839Z,0.00
2018-01-15T05:26:32.798Z,0.00
2018-01-15T05:27:32.762Z,0.00
2018-01-15T05:28:32.726Z,0.00
2018-01-15T05:29:32.698Z,0.00
2018-01-15T05:30:32.663Z,0.00
2018-01-15T05:31:32.621Z,0.00
2018-01-15T05:32:32.593Z,0.00
2018-01-15T05:33:32.554Z,0.00
2018-01-15T05:34:32.823Z,0.00
2018-01-15T05:35:32.487Z,0.00
2018-01-15T05:36:32.445Z,0.00
2018-01-15T05:37:32.414Z,0.00
2018-01-15T05:38:32.382Z,0.00
2018-01-15T05:39:32.346Z,0.00
2018-01-15T05:40:32.312Z,0.00
2018-01-15T05:41:32.273Z,0.00
2018-01-15T05:42:32.243Z,0.00
2018-01-15T05:43:32.207Z,0.00
2018-01-15T05:44:32.169Z,0.00
2018-01-15T05:45:32.142Z,0.00
2018-01-15T05:46:32.095Z,0.00
2018-01-15T05:47:32.065Z,0.00
2018-01-15T05:48:32.027Z,0.00
2018-01-15T05:49:31.990Z,0.00
2018-01-15T05:50:31.961Z,0.00
2018-01-15T05:51:31.925Z,0.00
2018-01-15T05:52:31.888Z,0.00
2018-01-15T05:53:31.849Z,0.00
2018-01-15T05:54:31.817Z,0.00
2018-01-15T05:55:31.786Z,0.00
2018-01-15T05:56:31.754Z,0.00
2018-01-15T05:57:31.717Z,0.00
2018-01-15T05:58:32.633Z,0.00
2018-01-15T05:59:31.649Z,0.00
2018-01-15T06:00:31.607Z,0.00
2018-01-15T06:01:31.576Z,0.00
2018-01-15T06:02:31.541Z,0.00
2018-01-15T06:03:31.511Z,0.00
2018-01-15T06:04:31.768Z,0.00
2018-01-15T06:05:31.437Z,0.00
2018-01-15T06:06:31.402Z,0.00
2018-01-15T06:07:31.360Z,0.00
2018-01-15T06:08:31.335Z,0.00
2018-01-15T06:09:31.289Z,0.00
2018-01-15T06:10:31.263Z,0.00
2018-01-15T06:11:31.223Z,0.00
2018-01-15T06:12:31.190Z,0.00
2018-01-15T06:13:31.151Z,0.00
2018-01-15T06:14:31.123Z,0.00
2018-01-15T06:15:31.083Z,0.00
2018-01-15T06:16:31.049Z,0.00
2018-01-15T06:17:31.010Z,0.00
2018-01-15T06:18:30.976Z,0.00
2018-01-15T06:19:30.950Z,0.00
2018-01-15T06:20:30.906Z,0.00
2018-01-15T06:21:30.873Z,0.00
2018-01-15T06:22:30.842Z,0.00
2018-01-15T06:23:30.804Z,0.00
2018-01-15T06:24:30.780Z,0.00
2018-01-15T06:25:30.733Z,0.00
2018-01-15T06:26:30.705Z,0.00
2018-01-15T06:27:30.660Z,0.00
2018-01-15T06:28:30.625Z,0.00
2018-01-15T06:29:30.597Z,0.00
2018-01-15T06:30:30.565Z,0.00
2018-01-15T06:31:30.526Z,0.00
2018-01-15T06:32:30.492Z,0.00
2018-01-15T06:33:30.458Z,0.00
2018-01-15T06:34:30.428Z,0.00
2018-01-15T06:35:30.381Z,0.00
2018-01-15T06:36:30.346Z,0.00
2018-01-15T06:37:30.317Z,0.00
2018-01-15T06:38:30.595Z,0.00
2018-01-15T06:39:30.243Z,0.00
2018-01-15T06:40:30.214Z,0.00
2018-01-15T06:41:30.172Z,0.00
2018-01-15T06:42:30.140Z,0.00
2018-01-15T06:43:30.108Z,0.00
2018-01-15T06:44:30.070Z,0.00
2018-01-15T06:45:30.044Z,0.00
2018-01-15T06:46:29.998Z,0.00
2018-01-15T06:47:29.967Z,0.00
2018-01-15T06:48:29.930Z,0.00
2018-01-15T06:49:29.902Z,0.00
2018-01-15T06:50:29.868Z,0.00
2018-01-15T06:51:29.831Z,0.00
2018-01-15T06:52:29.793Z,0.00
2018-01-15T06:53:29.756Z,0.00
2018-01-15T06:54:29.722Z,0.00
2018-01-15T06:55:29.700Z,0.00
2018-01-15T06:56:29.659Z,0.00
2018-01-15T06:57:29.621Z,0.00
2018-01-15T06:58:29.596Z,0.00
2018-01-15T06:59:29.553Z,0.00
2018-01-15T07:00:29.526Z,0.00
2018-01-15T07:01:29.481Z,0.00
2018-01-15T07:02:29.458Z,0.00
2018-01-15T07:03:29.420Z,0.00
2018-01-15T07:04:29.401Z,0.00
2018-01-15T07:05:29.358Z,0.00
2018-01-15T07:06:29.317Z,0.00
2018-01-15T07:07:29.277Z,0.00
2018-01-15T07:08:29.246Z,0.00
2018-01-15T07:09:29.214Z,0.00
2018-01-15T07:10:29.184Z,5.63
2018-01-15T07:11:29.135Z,5.63
2018-01-15T07:12:29.116Z,5.63
2018-01-15T07:13:29.068Z,5.63
2018-01-15T07:14:29.040Z,5.63
2018-01-15T07:15:28.998Z,11.25
2018-01-15T07:16:28.973Z,11.25
2018-01-15T07:17:28.929Z,11.25
2018-01-15T07:18:28.907Z,11.25
2018-01-15T07:19:28.858Z,16.88
2018-01-15T07:20:28.827Z,16.88
2018-01-15T07:21:28.800Z,16.88
2018-01-15T07:22:28.768Z,22.50
2018-01-15T07:23:28.728Z,22.50
2018-01-15T07:24:28.693Z,22.50
2018-01-15T07:25:28.652Z,28.13
2018-01-15T07:26:28.627Z,28.13
2018-01-15T07:27:28.585Z,33.75
2018-01-15T07:28:28.564Z,33.75
2018-01-15T07:29:28.516Z,39.38
2018-01-15T07:30:28.483Z,39.38
2018-01-15T07:31:28.453Z,39.38
2018-01-15T07:32:28.425Z,45.00
2018-01-15T07:33:28.376Z,45.00
2018-01-15T07:34:28.353Z,45.00
2018-01-15T07:35:28.349Z,50.63
2018-01-15T07:36:28.282Z,50.63
2018-01-15T07:37:28.248Z,56.25
2018-01-15T07:38:28.216Z,56.25
2018-01-15T07:39:28.175Z,61.88
2018-01-15T07:40:28.136Z,61.88
2018-01-15T07:41:28.111Z,67.50
2018-01-15T07:42:28.073Z,73.13
2018-01-15T07:43:28.033Z,73.13
2018-01-15T07:44:28.005Z,73.13
2018-01-15T07:45:27.969Z,78.75
2018-01-15T07:46:27.941Z,84.38
2018-01-15T07:47:27.906Z,90.00
2018-01-15T07:48:27.863Z,95.63
2018-01-15T07:49:27.830Z,95.63
2018-01-15T07:50:27.797Z,95.63
2018-01-15T07:51:27.761Z,95.63
2018-01-15T07:52:27.734Z,95.63
2018-01-15T07:53:27.691Z,101.25
2018-01-15T07:54:27.656Z,101.25
2018-01-15T07:55:27.670Z,106.88
2018-01-15T07:56:27.591Z,112.50
2018-01-15T07:57:27.568Z,112.50
2018-01-15T07:58:27.531Z,112.50
2018-01-15T07:59:27.505Z,112.50
2018-01-15T08:00:27.458Z,112.50
2018-01-15T08:01:27.432Z,112.50
2018-01-15T08:02:27.394Z,118.13
2018-01-15T08:03:27.393Z,118.13
2018-01-15T08:04:27.327Z,118.13
2018-01-15T08:05:27.292Z,118.13
2018-01-15T08:06:27.268Z,118.13
2018-01-15T08:07:27.223Z,118.13
2018-01-15T08:08:27.187Z,123.75
2018-01-15T08:09:27.194Z,123.75
2018-01-15T08:10:27.122Z,123.75
2018-01-15T08:11:27.084Z,123.75
2018-01-15T08:12:27.056Z,129.38
2018-01-15T08:13:27.021Z,129.38
2018-01-15T08:14:26.987Z,129.38
2018-01-15T08:15:26.958Z,135.00
2018-01-15T08:16:26.934Z,140.63
2018-01-15T08:17:26.893Z,140.63
2018-01-15T08:18:26.851Z,135.00
2018-01-15T08:19:26.817Z,129.38
2018-01-15T08:20:26.783Z,129.38
2018-01-15T08:21:26.750Z,135.00
2018-01-15T08:22:26.729Z,151.88
2018-01-15T08:23:26.696Z,168.75
2018-01-15T08:24:26.661Z,174.38
2018-01-15T08:25:26.623Z,168.75
2018-01-15T08:26:26.592Z,163.13
2018-01-15T08:27:26.590Z,157.50
2018-01-15T08:28:26.523Z,157.50
2018-01-15T08:29:26.486Z,157.50
2018-01-15T08:30:26.467Z,157.50
2018-01-15T08:31:26.421Z,157.50
2018-01-15T08:32:26.392Z,157.50
2018-01-15T08:33:26.402Z,163.13
2018-01-15T08:34:26.325Z,163.13
2018-01-15T08:35:26.293Z,157.50
2018-01-15T08:36:26.275Z,157.50
2018-01-15T08:37:26.228Z,157.50
2018-01-15T08:38:26.239Z,157.50
2018-01-15T08:39:26.173Z,157.50
2018-01-15T08:40:26.121Z,168.75
2018-01-15T08:41:26.089Z,174.38
2018-01-15T08:42:26.098Z,185.63
2018-01-15T08:43:26.021Z,202.50
2018-01-15T08:44:25.992Z,208.13
2018-01-15T08:45:25.963Z,202.50
2018-01-15T08:46:25.928Z,196.88
2018-01-15T08:47:25.896Z,196.88
2018-01-15T08:48:25.864Z,191.25
2018-01-15T08:49:25.836Z,185.63
2018-01-15T08:50:25.800Z,180.00
2018-01-15T08:51:25.761Z,180.00
2018-01-15T08:52:25.725Z,180.00
2018-01-15T08:53:25.696Z,174.38
2018-01-15T08:54:25.673Z,168.75
2018-01-15T08:55:25.639Z,168.75
2018-01-15T08:56:25.609Z,174.38
2018-01-15T08:57:25.585Z,174.38
2018-01-15T08:58:25.529Z,180.00
2018-01-15T08:59:25.501Z,185.63
2018-01-15T09:00:25.463Z,185.63
2018-01-15T09:01:25.437Z,185.63
2018-01-15T09:02:25.401Z,185.63
2018-01-15T09:03:25.363Z,196.88
2018-01-15T09:04:25.343Z,213.75
2018-01-15T09:05:25.312Z,236.25
2018-01-15T09:06:25.267Z,247.50
2018-01-15T09:07:25.237Z,253.13
2018-01-15T09:08:25.206Z,253.13
2018-01-15T09:09:25.188Z,253.13
2018-01-15T09:10:25.149Z,258.75
2018-01-15T09:11:25.106Z,264.38
2018-01-15T09:12:25.081Z,264.38
2018-01-15T09:13:25.055Z,264.38
2018-01-15T09:14:25.050Z,264.38
2018-01-15T09:15:24.974Z,270.00
2018-01-15T09:16:24.957Z,286.88
2018-01-15T09:17:24.907Z,303.75
2018-01-15T09:18:24.895Z,320.63
2018-01-15T09:19:24.853Z,331.88
2018-01-15T09:20:24.812Z,360.00
2018-01-15T09:21:24.796Z,382.50
2018-01-15T09:22:24.753Z,388.13
2018-01-15T09:23:24.722Z,388.13
2018-01-15T09:24:24.690Z,376.88
2018-01-15T09:25:24.655Z,360.00
2018-01-15T09:26:24.624Z,348.75
2018-01-15T09:27:24.885Z,343.13
2018-01-15T09:28:24.550Z,337.50
2018-01-15T09:29:24.558Z,337.50
2018-01-15T09:30:24.496Z,337.50
2018-01-15T09:31:24.466Z,348.75
2018-01-15T09:32:24.424Z,376.88
2018-01-15T09:33:24.422Z,393.75
2018-01-15T09:34:24.372Z,416.25
2018-01-15T09:35:24.341Z,410.63
2018-01-15T09:36:24.292Z,405.00
2018-01-15T09:37:24.262Z,410.63
2018-01-15T09:38:24.246Z,405.00
2018-01-15T09:39:24.209Z,388.13
2018-01-15T09:40:24.179Z,376.88
2018-01-15T09:41:24.137Z,315.00
2018-01-15T09:42:24.113Z,286.88
2018-01-15T09:43:24.081Z,258.75
2018-01-15T09:44:24.047Z,264.38
2018-01-15T09:45:24.013Z,275.63
2018-01-15T09:46:23.995Z,292.50
2018-01-15T09:47:23.945Z,281.25
2018-01-15T09:48:23.912Z,270.00
2018-01-15T09:49:23.891Z,264.38
2018-01-15T09:50:23.862Z,298.13
2018-01-15T09:51:23.814Z,315.00
2018-01-15T09:52:23.783Z,292.50
2018-01-15T09:53:23.753Z,275.63
2018-01-15T09:54:23.740Z,258.75
2018-01-15T09:55:23.697Z,275.63
2018-01-15T09:56:23.656Z,309.38
2018-01-15T09:57:23.876Z,326.25
2018-01-15T09:58:23.613Z,331.88
2018-01-15T09:59:23.566Z,343.13
2018-01-15T10:00:23.527Z,343.13
2018-01-15T10:01:23.502Z,343.13
2018-01-15T10:02:23.465Z,348.75
2018-01-15T10:03:23.435Z,331.88
2018-01-15T10:04:23.407Z,303.75
2018-01-15T10:05:23.390Z,270.00
2018-01-15T10:06:23.343Z,247.50
2018-01-15T10:07:23.310Z,225.00
2018-01-15T10:08:23.282Z,230.63
2018-01-15T10:09:23.244Z,219.38
2018-01-15T10:10:23.218Z,202.50
2018-01-15T10:11:23.182Z,185.63
2018-01-15T10:12:23.149Z,191.25
2018-01-15T10:13:23.121Z,208.13
2018-01-15T10:14:23.133Z,230.63
2018-01-15T10:15:23.090Z,247.50
2018-01-15T10:16:23.021Z,241.88
2018-01-15T10:17:22.989Z,247.50
2018-01-15T10:18:22.960Z,270.00
2018-01-15T10:19:22.950Z,258.75
2018-01-15T10:20:22.908Z,230.63
2018-01-15T10:21:22.867Z,219.38
2018-01-15T10:22:22.831Z,241.88
2018-01-15T10:23:22.814Z,264.38
2018-01-15T10:24:22.770Z,315.00
2018-01-15T10:25:22.733Z,399.38
2018-01-15T10:26:22.708Z,438.75
2018-01-15T10:27:22.675Z,450.00
2018-01-15T10:28:22.638Z,427.50
2018-01-15T10:29:22.604Z,399.38
2018-01-15T10:30:22.613Z,382.50
2018-01-15T10:31:22.544Z,348.75
2018-01-15T10:32:22.532Z,376.88
2018-01-15T10:33:22.482Z,410.63
2018-01-15T10:34:22.447Z,427.50
2018-01-15T10:35:22.426Z,438.75
2018-01-15T10:36:22.383Z,455.63
2018-01-15T10:37:22.378Z,461.25
2018-01-15T10:38:22.336Z,438.75
2018-01-15T10:39:22.305Z,410.63
2018-01-15T10:40:22.260Z,382.50
2018-01-15T10:41:22.240Z,371.25
2018-01-15T10:42:22.203Z,388.13
2018-01-15T10:43:22.174Z,382.50
2018-01-15T10:44:22.148Z,382.50
2018-01-15T10:45:22.109Z,382.50
2018-01-15T10:46:22.079Z,393.75
2018-01-15T10:47:22.069Z,405.00
2018-01-15T10:48:22.011Z,405.00
2018-01-15T10:49:22.008Z,410.63
2018-01-15T10:50:21.948Z,410.63
2018-01-15T10:51:21.925Z,388.13
2018-01-15T10:52:21.884Z,399.38
2018-01-15T10:53:21.855Z,382.50
2018-01-15T10:54:21.823Z,376.88
2018-01-15T10:55:21.806Z,365.63
2018-01-15T10:56:21.763Z,382.50
2018-01-15T10:57:21.735Z,365.63
2018-01-15T10:58:21.703Z,348.75
2018-01-15T10:59:21.708Z,348.75
2018-01-15T11:00:21.642Z,360.00
2018-01-15T11:01:21.606Z,365.63
2018-01-15T11:02:21.585Z,371.25
2018-01-15T11:03:21.556Z,388.13
2018-01-15T11:04:21.547Z,382.50
2018-01-15T11:05:21.494Z,382.50
2018-01-15T11:06:21.495Z,393.75
2018-01-15T11:07:21.423Z,399.38
2018-01-15T11:08:21.394Z,393.75
2018-01-15T11:09:21.364Z,405.00
2018-01-15T11:10:21.330Z,405.00
2018-01-15T11:11:21.306Z,388.13
2018-01-15T11:12:21.272Z,382.50
2018-01-15T11:13:21.245Z,365.63
2018-01-15T11:14:21.215Z,371.25
2018-01-15T11:15:21.174Z,405.00
2018-01-15T11:16:21.160Z,371.25
2018-01-15T11:17:21.118Z,371.25
2018-01-15T11:18:21.090Z,427.50
2018-01-15T11:19:21.064Z,472.50
2018-01-15T11:20:21.032Z,495.00
2018-01-15T11:21:20.995Z,523.13
2018-01-15T11:22:20.974Z,556.88
2018-01-15T11:23:20.934Z,573.75
2018-01-15T11:24:20.897Z,596.25
2018-01-15T11:25:20.865Z,590.63
2018-01-15T11:26:20.852Z,585.00
2018-01-15T11:27:20.809Z,568.13
2018-01-15T11:28:20.891Z,573.75
2018-01-15T11:29:20.742Z,573.75
2018-01-15T11:30:20.719Z,573.75
2018-01-15T11:31:20.681Z,568.13
2018-01-15T11:32:20.661Z,511.88
2018-01-15T11:33:20.628Z,478.13
2018-01-15T11:34:20.598Z,466.88
2018-01-15T11:35:20.579Z,495.00
2018-01-15T11:36:20.535Z,506.25
2018-01-15T11:37:21.308Z,517.50
2018-01-15T11:38:20.469Z,517.50
2018-01-15T11:39:20.445Z,523.13
2018-01-15T11:40:20.425Z,517.50
2018-01-15T11:41:20.384Z,517.50
2018-01-15T11:42:20.353Z,511.88
2018-01-15T11:43:20.319Z,500.63
2018-01-15T11:44:20.288Z,523.13
2018-01-15T11:45:20.258Z,540.00
2018-01-15T11:46:20.234Z,562.50
2018-01-15T11:47:20.228Z,579.38
2018-01-15T11:48:20.167Z,596.25
2018-01-15T11:49:20.135Z,624.38
2018-01-15T11:50:20.106Z,635.63
2018-01-15T11:51:20.116Z,646.88
2018-01-15T11:52:20.051Z,652.50
2018-01-15T11:53:20.014Z,658.13
2018-01-15T11:54:19.984Z,680.63
2018-01-15T11:55:19.953Z,697.50
2018-01-15T11:56:19.926Z,675.00
2018-01-15T11:57:19.901Z,680.63
2018-01-15T11:58:19.866Z,680.63
2018-01-15T11:59:20.091Z,658.13
2018-01-15T12:00:19.803Z,646.88
2018-01-15T12:01:19.781Z,635.63
2018-01-15T12:02:19.751Z,601.88
2018-01-15T12:03:19.721Z,613.13
2018-01-15T12:04:19.690Z,601.88
2018-01-15T12:05:19.662Z,585.00
2018-01-15T12:06:19.625Z,613.13
2018-01-15T12:07:19.595Z,607.50
2018-01-15T12:08:19.565Z,618.75
2018-01-15T12:09:19.542Z,613.13
2018-01-15T12:10:19.508Z,658.13
2018-01-15T12:11:19.476Z,680.63
2018-01-15T12:12:19.453Z,675.00
2018-01-15T12:13:19.416Z,635.63
2018-01-15T12:14:19.399Z,624.38
2018-01-15T12:15:19.396Z,630.00
2018-01-15T12:16:19.392Z,686.25
2018-01-15T12:17:19.299Z,635.63
2018-01-15T12:18:19.282Z,652.50
2018-01-15T12:19:19.242Z,765.00
2018-01-15T12:20:19.211Z,804.38
2018-01-15T12:21:19.179Z,810.00
2018-01-15T12:22:19.149Z,776.25
2018-01-15T12:23:19.120Z,770.63
2018-01-15T12:24:19.099Z,753.75
2018-01-15T12:25:19.087Z,742.50
2018-01-15T12:26:19.041Z,725.63
2018-01-15T12:27:19.008Z,731.25
2018-01-15T12:28:18.974Z,618.75
2018-01-15T12:29:18.944Z,556.88
2018-01-15T12:30:18.922Z,506.25
2018-01-15T12:31:18.892Z,466.88
2018-01-15T12:32:18.855Z,450.00
2018-01-15T12:33:18.836Z,444.38
2018-01-15T12:34:18.798Z,438.75
2018-01-15T12:35:19.277Z,433.13
2018-01-15T12:36:18.743Z,433.13
2018-01-15T12:37:18.712Z,444.38
2018-01-15T12:38:18.694Z,455.63
2018-01-15T12:39:18.651Z,461.25
2018-01-15T12:40:18.634Z,450.00
2018-01-15T12:41:18.846Z,444.38
2018-01-15T12:42:18.572Z,433.13
2018-01-15T12:43:18.533Z,427.50
2018-01-15T12:44:18.506Z,427.50
2018-01-15T12:45:18.486Z,427.50
2018-01-15T12:46:18.464Z,427.50
2018-01-15T12:47:18.415Z,427.50
2018-01-15T12:48:18.397Z,433.13
2018-01-15T12:49:18.373Z,438.75
2018-01-15T12:50:18.332Z,433.13
2018-01-15T12:51:18.324Z,433.13
2018-01-15T12:52:18.284Z,433.13
2018-01-15T12:53:18.254Z,421.88
2018-01-15T12:54:18.208Z,416.25
2018-01-15T12:55:18.194Z,416.25
2018-01-15T12:56:18.167Z,416.25